Time;durP1;ratioP1;P1;durP2;ratioP2;P2;SDS_P1;SDS_P2;PMS_P1;PMS_P2;Temp;Humidity;BMP_temperature;BMP_pressure;BME280_temperature;BME280_humidity;BME280_pressure;Samples;Min_cycle;Max_cycle;Signal;HPM_P1;HPM_P2
2022/12/19 00:01:39;;;;;;;4.03;2.75;;;17.80;70.20;;;;;;4984800;28;20030;-73
2022/12/19 00:04:06;;;;;;;4.03;2.72;;;17.80;70.20;;;;;;4994829;28;20354;-73
2022/12/19 00:06:32;;;;;;;3.33;2.83;;;17.90;70.20;;;;;;4977307;28;20029;-74
2022/12/19 00:08:59;;;;;;;3.58;2.70;;;17.90;70.30;;;;;;4994433;28;20047;-74
2022/12/19 00:11:26;;;;;;;5.00;2.67;;;17.90;70.30;;;;;;4977500;28;20057;-74
2022/12/19 00:13:52;;;;;;;3.72;2.65;;;17.90;70.40;;;;;;4977134;28;20113;-74
2022/12/19 00:16:20;;;;;;;4.05;2.90;;;17.90;70.60;;;;;;4994610;28;20741;-74
2022/12/19 00:18:46;;;;;;;5.28;2.50;;;17.90;70.70;;;;;;4977389;28;20022;-74
2022/12/19 00:21:13;;;;;;;4.35;2.55;;;17.90;70.70;;;;;;4994470;28;20031;-74
2022/12/19 00:23:39;;;;;;;4.47;2.60;;;17.90;70.70;;;;;;4976864;28;20097;-74
2022/12/19 00:26:21;;;;;;;4.82;2.63;;;17.90;70.70;;;;;;4977065;28;20097;-74
2022/12/19 00:28:50;;;;;;;3.63;2.30;;;17.90;70.60;;;;;;4977893;28;20101;-74
2022/12/19 00:31:16;;;;;;;3.05;2.30;;;17.90;70.60;;;;;;4977171;28;20030;-74
2022/12/19 00:33:42;;;;;;;4.25;2.58;;;17.90;70.80;;;;;;4960914;28;20117;-74
2022/12/19 00:36:10;;;;;;;5.85;2.42;;;17.90;70.80;;;;;;4976654;28;20101;-74
2022/12/19 00:38:36;;;;;;;3.50;2.40;;;17.90;70.80;;;;;;4976762;28;20022;-74
2022/12/19 00:41:06;;;;;;;3.47;2.30;;;17.90;71.80;;;;;;4994049;28;20105;-74
2022/12/19 00:43:32;;;;;;;2.85;2.28;;;17.90;70.90;;;;;;4993963;28;20041;-74
2022/12/19 00:45:57;;;;;;;2.85;2.50;;;17.90;70.90;;;;;;4994142;28;20477;-74
2022/12/19 00:48:23;;;;;;;2.75;2.13;;;17.90;70.90;;;;;;4976442;28;20105;-74
2022/12/19 00:50:49;;;;;;;4.60;2.10;;;17.90;72.00;;;;;;4993926;28;20054;-74
2022/12/19 00:53:14;;;;;;;2.75;2.30;;;17.90;71.00;;;;;;4993828;28;20504;-74
2022/12/19 00:55:40;;;;;;;2.28;1.88;;;17.90;70.90;;;;;;4960348;28;20504;-74
2022/12/19 00:58:05;;;;;;;2.75;2.10;;;17.90;70.80;;;;;;4976671;28;20030;-74
2022/12/19 01:00:31;;;;;;;5.05;2.80;;;17.90;70.70;;;;;;4993609;28;20035;-74
2022/12/19 01:02:57;;;;;;;3.88;2.47;;;17.90;70.70;;;;;;4974371;28;20038;-73
2022/12/19 01:05:23;;;;;;;3.00;2.40;;;17.90;70.80;;;;;;4974028;28;20453;-74
2022/12/19 01:07:48;;;;;;;3.10;2.13;;;17.90;70.80;;;;;;4974248;28;20034;-74
2022/12/19 01:10:14;;;;;;;3.67;2.15;;;17.90;70.80;;;;;;4974028;28;20046;-74
2022/12/19 01:12:45;;;;;;;3.15;2.25;;;18.00;70.90;;;;;;4974392;28;20015;-74
2022/12/19 01:15:16;;;;;;;5.40;2.38;;;17.90;70.80;;;;;;4974375;28;20039;-74
2022/12/19 01:17:41;;;;;;;1.75;1.65;;;17.90;70.90;;;;;;4957260;28;20038;-74
2022/12/19 01:20:07;;;;;;;4.20;2.28;;;17.90;71.00;;;;;;4974006;28;20030;-74
2022/12/19 01:22:33;;;;;;;2.80;2.38;;;18.00;71.00;;;;;;4957020;28;20035;-74
2022/12/19 01:24:59;;;;;;;2.42;1.80;;;18.00;70.90;;;;;;4974319;28;20034;-74
2022/12/19 01:27:24;;;;;;;5.95;2.03;;;18.00;70.90;;;;;;4956596;28;20023;-74
2022/12/19 01:29:50;;;;;;;3.65;2.05;;;17.90;70.90;;;;;;4974262;28;20031;-74
2022/12/19 01:32:16;;;;;;;3.47;1.88;;;18.00;71.00;;;;;;4956652;28;20039;-74
2022/12/19 01:34:41;;;;;;;3.92;2.15;;;18.00;71.00;;;;;;4942787;28;20446;-73
2022/12/19 01:37:07;;;;;;;4.97;2.05;;;18.00;71.00;;;;;;4978276;28;20105;-74
2022/12/19 01:39:33;;;;;;;3.78;1.98;;;18.00;71.00;;;;;;4977914;28;20138;-74
2022/12/19 01:41:58;;;;;;;2.67;2.10;;;18.00;71.00;;;;;;4977845;28;20059;-74
2022/12/19 01:44:24;;;;;;;2.55;2.25;;;18.00;71.00;;;;;;4960595;28;20034;-73
2022/12/19 01:46:52;;;;;;;3.00;1.83;;;18.00;71.10;;;;;;4960916;28;20027;-74
2022/12/19 01:49:28;;;;;;;3.17;1.88;;;18.00;71.10;;;;;;4944494;28;20018;-74
2022/12/19 01:51:55;;;;;;;2.47;2.15;;;18.00;71.10;;;;;;4960893;28;20126;-74
2022/12/19 01:54:23;;;;;;;3.05;2.05;;;18.00;71.20;;;;;;4958558;28;20049;-74
2022/12/19 01:56:50;;;;;;;1.73;1.63;;;18.00;71.20;;;;;;4980054;28;20026;-74
2022/12/19 01:59:19;;;;;;;1.90;1.70;;;18.00;71.20;;;;;;4979779;28;20080;-74
2022/12/19 02:01:44;;;;;;;2.17;1.80;;;18.00;71.20;;;;;;4970062;28;20026;-74
2022/12/19 02:04:10;;;;;;;3.20;2.10;;;18.00;71.40;;;;;;4977337;28;20026;-74
2022/12/19 02:06:37;;;;;;;2.17;1.80;;;18.00;71.60;;;;;;4944433;28;20030;-74
2022/12/19 02:09:02;;;;;;;2.05;1.80;;;18.00;71.60;;;;;;4941010;29;20051;-74
2022/12/19 02:11:28;;;;;;;3.45;1.90;;;18.00;71.70;;;;;;4957861;28;20023;-74
2022/12/19 02:13:54;;;;;;;1.48;1.38;;;18.00;71.80;;;;;;4958254;28;20034;-74
2022/12/19 02:16:29;;;;;;;3.17;1.80;;;18.00;71.70;;;;;;4956572;29;20020;-74
2022/12/19 02:19:23;;;;;;;2.47;1.85;;;18.00;71.80;;;;;;4956630;29;20078;-73
2022/12/19 02:22:04;;;;;;;2.28;1.70;;;18.00;71.80;;;;;;4958016;28;20020;-74
2022/12/19 02:24:51;;;;;;;2.03;1.67;;;18.00;71.80;;;;;;4941784;29;20019;-74
2022/12/19 02:27:17;;;;;;;2.60;1.73;;;18.00;71.80;;;;;;4957743;28;20027;-73
2022/12/19 02:29:57;;;;;;;5.78;1.80;;;18.10;71.80;;;;;;4957792;28;20030;-74
2022/12/19 02:33:09;;;;;;;3.33;1.52;;;18.00;71.70;;;;;;4957617;28;20110;-74
2022/12/19 02:35:55;;;;;;;1.73;1.40;;;18.00;71.80;;;;;;4957326;28;20043;-74
2022/12/19 02:38:45;;;;;;;3.00;1.85;;;18.10;71.90;;;;;;4940719;29;20023;-74
2022/12/19 02:41:21;;;;;;;2.35;1.70;;;18.00;71.90;;;;;;4956415;29;20038;-74
2022/12/19 02:43:48;;;;;;;1.90;1.70;;;18.00;71.90;;;;;;4956267;29;20030;-74
2022/12/19 02:46:14;;;;;;;2.17;1.70;;;18.00;71.80;;;;;;4939246;29;20031;-74
2022/12/19 02:48:40;;;;;;;2.33;1.70;;;18.00;71.70;;;;;;4940176;29;20050;-74
2022/12/19 02:51:06;;;;;;;2.40;1.80;;;18.10;71.80;;;;;;4940363;29;20466;-73
2022/12/19 02:53:31;;;;;;;2.28;1.65;;;18.10;71.80;;;;;;4947762;28;20030;-74
2022/12/19 02:56:18;;;;;;;1.60;1.40;;;18.10;71.80;;;;;;4975300;28;20027;-74
2022/12/19 02:58:49;;;;;;;2.42;1.60;;;18.10;71.80;;;;;;4976521;28;20031;-74
2022/12/19 03:01:46;;;;;;;3.35;1.45;;;18.00;71.80;;;;;;4969120;28;20106;-74
2022/12/19 03:04:27;;;;;;;3.75;1.60;;;18.10;71.80;;;;;;4954865;29;20114;-74
2022/12/19 03:07:13;;;;;;;1.77;1.30;;;18.10;71.80;;;;;;4939098;29;20063;-74
2022/12/19 03:09:39;;;;;;;2.83;1.95;;;18.00;71.70;;;;;;4941130;29;20039;-74
2022/12/19 03:12:08;;;;;;;2.13;1.77;;;18.10;71.70;;;;;;4938988;29;20119;-74
2022/12/19 03:14:33;;;;;;;2.40;1.92;;;18.10;71.70;;;;;;4923224;29;20039;-74
2022/12/19 03:17:06;;;;;;;2.60;1.80;;;18.10;71.80;;;;;;4954581;29;20098;-74
2022/12/19 03:19:33;;;;;;;2.20;1.50;;;18.10;71.90;;;;;;4922838;29;20111;-74
2022/12/19 03:21:58;;;;;;;1.58;1.40;;;18.10;71.80;;;;;;4938520;29;20545;-74
2022/12/19 03:24:24;;;;;;;3.72;1.48;;;18.10;71.80;;;;;;4938851;29;20211;-74
2022/12/19 03:26:55;;;;;;;3.00;1.45;;;18.10;71.90;;;;;;4922952;29;20055;-74
2022/12/19 03:29:20;;;;;;;4.20;1.40;;;18.10;71.80;;;;;;4941605;28;20047;-74
2022/12/19 03:31:46;;;;;;;4.93;1.50;;;18.10;71.80;;;;;;4957308;28;20112;-74
2022/12/19 03:34:30;;;;;;;2.45;1.45;;;18.10;71.90;;;;;;4954525;29;20035;-74
2022/12/19 03:36:58;;;;;;;1.83;1.40;;;18.10;71.90;;;;;;4940485;29;20035;-74
2022/12/19 03:39:24;;;;;;;2.45;1.40;;;18.10;72.00;;;;;;4938257;29;20043;-74
2022/12/19 03:44:36;;;;;;;2.55;1.40;;;18.00;72.00;;;;;;4961192;28;20041;-74
2022/12/19 03:47:08;;;;;;;3.63;1.52;;;18.10;72.10;;;;;;4958654;28;20033;-74
2022/12/19 03:49:33;;;;;;;2.63;1.20;;;18.10;72.10;;;;;;4958997;28;20054;-74
2022/12/19 03:52:18;;;;;;;2.55;1.30;;;18.10;72.20;;;;;;4958176;28;20069;-74
2022/12/19 03:54:49;;;;;;;1.50;1.30;;;18.10;72.20;;;;;;4974483;28;20034;-74
2022/12/19 03:57:20;;;;;;;1.70;1.35;;;18.10;72.30;;;;;;4958303;28;20042;-74
2022/12/19 03:59:48;;;;;;;2.00;1.30;;;18.10;72.40;;;;;;4958471;28;20532;-74
2022/12/19 04:02:14;;;;;;;3.08;1.38;;;18.10;73.30;;;;;;4974130;28;20097;-74
2022/12/19 04:04:41;;;;;;;1.60;1.20;;;18.10;72.40;;;;;;4958337;28;20031;-74
2022/12/19 04:07:07;;;;;;;1.88;1.20;;;18.10;72.40;;;;;;4974127;28;20027;-74
2022/12/19 04:09:33;;;;;;;2.08;1.20;;;18.10;72.40;;;;;;4973892;28;20058;-74
2022/12/19 04:12:01;;;;;;;3.42;1.40;;;18.10;72.40;;;;;;4974019;28;20078;-74
2022/12/19 04:14:34;;;;;;;2.30;1.30;;;18.10;72.40;;;;;;4958033;28;20125;-74
2022/12/19 04:17:34;;;;;;;1.65;1.30;;;18.10;72.40;;;;;;4957993;28;20029;-74
2022/12/19 04:20:04;;;;;;;3.08;1.30;;;18.10;72.50;;;;;;4978091;28;20478;-74
2022/12/19 04:22:36;;;;;;;2.67;1.30;;;18.10;72.80;;;;;;4973794;28;20480;-74
2022/12/19 04:25:01;;;;;;;1.98;1.05;;;18.10;72.50;;;;;;4973937;28;20046;-74
2022/12/19 04:27:27;;;;;;;2.05;1.27;;;18.10;72.60;;;;;;4957880;28;20055;-74
2022/12/19 04:29:54;;;;;;;3.10;1.52;;;18.10;72.60;;;;;;4973538;28;20539;-74
2022/12/19 04:32:20;;;;;;;3.67;1.30;;;18.10;72.50;;;;;;4973584;28;20039;-74
2022/12/19 04:34:45;;;;;;;2.25;1.30;;;18.10;72.50;;;;;;4973625;28;20085;-74
2022/12/19 04:37:11;;;;;;;2.03;1.00;;;18.10;72.60;;;;;;4973912;28;20031;-74
2022/12/19 04:39:36;;;;;;;3.30;1.40;;;18.10;72.60;;;;;;4957512;28;20102;-74
2022/12/19 04:42:02;;;;;;;4.63;1.25;;;18.10;73.00;;;;;;4974686;28;20505;-74
2022/12/19 04:44:28;;;;;;;3.35;1.30;;;18.10;72.70;;;;;;4974499;28;20478;-74
2022/12/19 04:46:54;;;;;;;2.17;1.20;;;18.10;72.70;;;;;;4974531;28;20041;-74
2022/12/19 04:49:19;;;;;;;1.60;1.10;;;18.10;72.70;;;;;;4974903;28;20057;-74
2022/12/19 04:51:45;;;;;;;1.80;1.23;;;18.10;72.70;;;;;;4974682;28;20038;-74
2022/12/19 04:54:11;;;;;;;5.05;1.50;;;18.10;72.70;;;;;;4973224;28;20053;-74
2022/12/19 04:56:36;;;;;;;1.67;1.40;;;18.10;72.70;;;;;;4974542;28;20062;-74
2022/12/19 04:59:02;;;;;;;2.78;1.20;;;18.10;72.60;;;;;;4974337;28;20058;-74
2022/12/19 05:01:28;;;;;;;2.53;1.40;;;18.10;72.60;;;;;;4965407;28;20079;-74
2022/12/19 05:03:53;;;;;;;1.80;1.00;;;18.10;72.70;;;;;;4953862;29;20406;-74
2022/12/19 05:06:19;;;;;;;1.95;1.13;;;18.10;72.70;;;;;;4955152;28;20031;-74
2022/12/19 05:08:45;;;;;;;2.75;1.13;;;18.10;72.70;;;;;;4952807;28;20127;-74
2022/12/19 05:11:12;;;;;;;4.00;1.20;;;18.10;72.70;;;;;;4955241;28;20078;-74
2022/12/19 05:13:38;;;;;;;1.65;1.20;;;18.10;72.70;;;;;;4953494;29;20383;-74
2022/12/19 05:16:08;;;;;;;2.75;1.20;;;18.10;72.70;;;;;;4954754;28;20028;-74
2022/12/19 05:18:34;;;;;;;3.40;1.20;;;18.10;72.70;;;;;;4953708;29;20057;-74
2022/12/19 05:21:00;;;;;;;1.20;1.10;;;18.10;72.70;;;;;;4953616;29;20106;-74
2022/12/19 05:23:26;;;;;;;0.77;0.68;;;18.10;72.80;;;;;;4954998;28;20550;-74
2022/12/19 05:25:51;;;;;;;1.15;0.98;;;18.10;72.70;;;;;;4953816;29;20510;-74
2022/12/19 05:28:17;;;;;;;2.17;1.20;;;18.10;72.60;;;;;;4953434;29;20494;-74
2022/12/19 05:30:43;;;;;;;1.80;1.00;;;18.10;72.70;;;;;;4954710;28;20028;-74
2022/12/19 05:33:09;;;;;;;1.88;1.00;;;18.10;72.60;;;;;;4955008;28;20023;-74
2022/12/19 05:35:35;;;;;;;2.05;1.20;;;18.10;72.70;;;;;;4954877;28;20043;-74
2022/12/19 05:38:00;;;;;;;1.23;1.13;;;18.10;72.60;;;;;;4953509;29;20027;-74
2022/12/19 05:40:26;;;;;;;1.50;1.00;;;18.10;72.60;;;;;;4954861;28;20027;-75
2022/12/19 05:42:52;;;;;;;1.38;1.02;;;18.10;72.60;;;;;;4953192;29;20031;-75
2022/12/19 05:45:17;;;;;;;2.28;0.82;;;18.10;72.70;;;;;;4954861;28;20061;-74
2022/12/19 05:47:45;;;;;;;1.77;0.80;;;18.10;72.60;;;;;;4954745;28;20028;-74
2022/12/19 05:50:14;;;;;;;2.17;1.35;;;18.10;72.70;;;;;;4953498;29;20184;-74
2022/12/19 05:52:40;;;;;;;1.35;0.70;;;18.10;73.60;;;;;;4954125;28;20033;-74
2022/12/19 05:55:06;;;;;;;1.83;0.90;;;18.10;72.60;;;;;;4956610;28;20030;-74
2022/12/19 05:57:32;;;;;;;2.08;1.10;;;18.10;72.50;;;;;;4972689;28;20031;-74
2022/12/19 05:59:57;;;;;;;2.08;1.00;;;18.10;72.60;;;;;;4972671;28;20037;-74
2022/12/19 06:02:23;;;;;;;1.48;1.00;;;18.00;72.60;;;;;;4958896;28;20531;-74
2022/12/19 06:04:49;;;;;;;1.90;1.30;;;18.00;72.60;;;;;;4954467;28;20565;-74
2022/12/19 06:07:14;;;;;;;2.17;1.00;;;18.10;72.70;;;;;;4954430;28;20483;-74
2022/12/19 06:09:40;;;;;;;1.00;0.80;;;18.00;72.60;;;;;;4968819;28;20406;-74
2022/12/19 06:12:06;;;;;;;2.28;1.10;;;18.10;72.60;;;;;;4973684;28;20385;-74
2022/12/19 06:14:32;;;;;;;1.30;1.13;;;18.00;72.60;;;;;;4973934;28;20088;-75
2022/12/19 06:16:57;;;;;;;2.47;1.13;;;18.00;72.60;;;;;;4973535;28;20031;-75
2022/12/19 06:19:23;;;;;;;2.00;1.00;;;18.00;72.60;;;;;;4972407;28;20042;-73
2022/12/19 06:21:49;;;;;;;1.17;0.80;;;18.10;72.70;;;;;;4975879;28;20097;-74
2022/12/19 06:24:15;;;;;;;0.85;0.70;;;18.00;72.70;;;;;;4977339;28;20046;-74
2022/12/19 06:26:40;;;;;;;1.15;0.90;;;18.00;72.70;;;;;;4976036;28;20365;-74
2022/12/19 06:29:06;;;;;;;0.98;0.80;;;18.00;72.70;;;;;;4977220;28;20084;-74
2022/12/19 06:31:32;;;;;;;2.47;0.77;;;18.00;72.60;;;;;;4977120;28;20101;-74
2022/12/19 06:33:57;;;;;;;1.13;0.90;;;18.00;72.60;;;;;;4977049;28;20038;-74
2022/12/19 06:36:29;;;;;;;1.02;0.70;;;18.00;72.60;;;;;;4977138;28;20019;-74
2022/12/19 06:38:56;;;;;;;1.20;0.93;;;18.00;72.60;;;;;;4975543;28;20121;-74
2022/12/19 06:44:07;;;;;;;1.20;0.90;;;18.00;72.60;;;;;;4976968;28;20029;-74
2022/12/19 06:46:33;;;;;;;0.70;0.60;;;18.00;72.60;;;;;;4975786;28;20102;-74
2022/12/19 06:48:59;;;;;;;1.30;1.00;;;18.00;72.70;;;;;;4975670;28;20153;-74
2022/12/19 06:51:24;;;;;;;0.85;0.85;;;18.00;72.70;;;;;;4975765;28;20432;-74
2022/12/19 06:53:50;;;;;;;0.73;0.60;;;18.00;72.70;;;;;;4976446;28;20034;-74
2022/12/19 06:56:16;;;;;;;0.60;0.60;;;18.00;72.70;;;;;;4976722;28;20023;-74
2022/12/19 06:58:42;;;;;;;1.40;0.90;;;18.10;72.70;;;;;;4980515;28;20446;-74
2022/12/19 07:01:15;;;;;;;2.00;0.88;;;18.00;72.70;;;;;;4986570;28;20038;-74
2022/12/19 07:03:41;;;;;;;2.30;1.00;;;18.00;72.70;;;;;;4974565;28;20382;-74
2022/12/19 07:06:07;;;;;;;1.10;0.70;;;18.00;72.70;;;;;;4958420;28;20046;-75
2022/12/19 07:08:32;;;;;;;4.97;1.05;;;18.00;72.90;;;;;;4981159;28;20053;-74
2022/12/19 07:10:58;;;;;;;1.10;0.77;;;18.00;72.90;;;;;;4977866;28;20030;-74
2022/12/19 07:13:24;;;;;;;4.50;0.82;;;18.00;72.70;;;;;;4977852;28;20516;-74
2022/12/19 07:15:50;;;;;;;1.45;0.70;;;18.10;72.80;;;;;;4995185;28;20481;-74
2022/12/19 07:18:16;;;;;;;3.85;0.90;;;18.00;72.80;;;;;;4961623;28;20455;-74
2022/12/19 07:20:42;;;;;;;0.90;0.73;;;18.00;72.80;;;;;;4961550;28;20030;-74
2022/12/19 07:23:12;;;;;;;1.00;0.77;;;18.00;72.70;;;;;;4994968;28;20022;-74
2022/12/19 07:25:38;;;;;;;2.05;0.80;;;18.00;72.70;;;;;;4995033;28;20026;-74
2022/12/19 07:28:04;;;;;;;4.82;0.90;;;18.00;72.70;;;;;;4977466;28;20026;-74
2022/12/19 07:30:30;;;;;;;1.42;0.80;;;18.00;72.80;;;;;;4977589;28;20030;-74
2022/12/19 07:32:55;;;;;;;3.25;0.70;;;18.00;72.60;;;;;;4976909;28;20030;-73
2022/12/19 07:35:21;;;;;;;1.38;0.88;;;18.00;72.70;;;;;;4994834;28;20092;-74
2022/12/19 07:37:48;;;;;;;0.80;0.70;;;18.00;72.60;;;;;;4977359;28;20073;-75
2022/12/19 07:40:14;;;;;;;1.05;0.60;;;18.00;72.60;;;;;;4994628;28;20030;-75
2022/12/19 07:42:39;;;;;;;1.20;0.80;;;18.00;72.60;;;;;;4977488;28;20476;-74
2022/12/19 07:45:05;;;;;;;1.38;0.70;;;18.10;72.70;;;;;;4994706;28;20031;-74
2022/12/19 07:47:31;;;;;;;1.17;0.68;;;18.00;72.60;;;;;;4994550;28;20484;-74
2022/12/19 07:49:57;;;;;;;2.05;0.70;;;18.00;72.60;;;;;;4976931;28;20054;-74
2022/12/19 07:52:22;;;;;;;1.08;0.70;;;18.10;72.70;;;;;;4994406;28;20485;-74
2022/12/19 07:54:48;;;;;;;2.17;0.80;;;18.00;73.70;;;;;;4994287;28;20440;-74
2022/12/19 07:57:13;;;;;;;1.10;0.70;;;18.10;72.70;;;;;;4994432;28;20030;-74
2022/12/19 07:59:39;;;;;;;1.67;0.70;;;18.10;72.60;;;;;;4994330;28;20027;-74
2022/12/19 08:02:05;;;;;;;1.23;0.80;;;18.10;72.60;;;;;;4976841;28;20077;-74
2022/12/19 08:04:31;;;;;;;1.13;0.70;;;18.10;72.60;;;;;;4994245;28;20076;-74
2022/12/19 08:06:56;;;;;;;1.38;0.50;;;18.00;72.60;;;;;;4993872;28;20025;-74
2022/12/19 08:09:22;;;;;;;2.15;0.80;;;18.10;72.60;;;;;;4976585;28;20496;-74
2022/12/19 08:11:48;;;;;;;2.80;0.65;;;18.00;72.60;;;;;;4994244;28;20098;-74
2022/12/19 08:14:13;;;;;;;0.90;0.60;;;18.10;72.70;;;;;;4994045;28;20420;-74
2022/12/19 08:16:39;;;;;;;1.13;0.60;;;18.10;72.60;;;;;;4994013;28;20037;-74
2022/12/19 08:19:05;;;;;;;0.82;0.70;;;18.10;72.70;;;;;;4993902;28;20105;-74
2022/12/19 08:21:30;;;;;;;2.20;0.60;;;18.10;72.60;;;;;;4993704;28;20555;-73
2022/12/19 08:23:56;;;;;;;1.80;0.90;;;18.10;72.60;;;;;;4993750;28;20097;-74
2022/12/19 08:26:25;;;;;;;1.92;0.70;;;18.10;72.60;;;;;;4976600;28;20019;-74
2022/12/19 08:28:52;;;;;;;2.13;0.77;;;18.10;72.60;;;;;;4976948;28;20026;-74
2022/12/19 08:31:18;;;;;;;1.23;0.52;;;18.10;72.60;;;;;;4976366;28;20085;-74
2022/12/19 08:33:43;;;;;;;1.38;0.60;;;18.10;72.60;;;;;;4976626;28;20477;-74
2022/12/19 08:36:11;;;;;;;0.60;0.60;;;18.10;72.70;;;;;;4976035;28;20022;-74
2022/12/19 08:38:38;;;;;;;1.92;0.60;;;18.10;72.60;;;;;;4976113;28;20054;-74
2022/12/19 08:41:04;;;;;;;0.93;0.60;;;18.10;72.70;;;;;;4993626;28;20014;-74
2022/12/19 08:43:30;;;;;;;5.45;0.60;;;18.10;72.70;;;;;;4975258;28;20027;-74
2022/12/19 08:45:55;;;;;;;0.43;0.35;;;18.10;72.60;;;;;;4993393;28;20033;-74
2022/12/19 08:48:22;;;;;;;3.58;0.63;;;18.10;72.70;;;;;;4975883;28;20066;-74
2022/12/19 08:51:06;;;;;;;0.85;0.60;;;18.10;72.70;;;;;;4976243;28;20477;-74
2022/12/19 08:53:33;;;;;;;0.88;0.40;;;18.10;72.70;;;;;;4976081;28;20489;-74
2022/12/19 08:56:01;;;;;;;1.40;0.57;;;18.10;72.70;;;;;;4976056;28;20044;-74
2022/12/19 08:58:27;;;;;;;2.72;0.60;;;18.10;72.70;;;;;;4976074;28;20034;-74
2022/12/19 09:00:54;;;;;;;1.20;0.60;;;18.10;72.70;;;;;;4975731;28;20089;-74
2022/12/19 09:03:21;;;;;;;1.52;0.43;;;18.10;72.70;;;;;;4976022;28;20132;-74
2022/12/19 09:05:56;;;;;;;1.25;0.60;;;18.10;72.70;;;;;;4975917;28;20026;-74
2022/12/19 09:08:22;;;;;;;0.88;0.40;;;18.10;72.60;;;;;;4977021;28;20513;-74
2022/12/19 09:10:47;;;;;;;0.50;0.32;;;18.10;72.60;;;;;;4975666;28;20021;-74
2022/12/19 09:13:13;;;;;;;1.90;0.60;;;18.10;72.60;;;;;;4993089;28;20058;-74
2022/12/19 09:15:39;;;;;;;0.40;0.40;;;18.10;72.60;;;;;;4993164;28;20023;-74
2022/12/19 09:18:05;;;;;;;0.80;0.70;;;18.10;72.50;;;;;;4992730;28;20385;-74
2022/12/19 09:20:31;;;;;;;1.48;0.65;;;18.10;72.60;;;;;;4975920;28;20026;-74
2022/12/19 09:22:57;;;;;;;1.17;0.70;;;18.10;72.60;;;;;;4975662;28;20058;-74
2022/12/19 09:25:22;;;;;;;1.08;0.40;;;18.10;72.60;;;;;;4992941;28;20097;-74
2022/12/19 09:27:48;;;;;;;1.33;0.70;;;18.10;72.60;;;;;;4993128;28;20081;-74
2022/12/19 09:30:14;;;;;;;0.70;0.50;;;18.10;72.50;;;;;;4992758;28;20026;-74
2022/12/19 09:32:40;;;;;;;0.93;0.57;;;18.10;72.60;;;;;;4992757;28;20034;-74
2022/12/19 09:35:06;;;;;;;1.92;0.77;;;18.10;72.60;;;;;;4992997;28;20037;-74
2022/12/19 09:37:32;;;;;;;2.25;0.60;;;18.10;72.60;;;;;;4975697;28;20034;-74
2022/12/19 09:39:58;;;;;;;0.73;0.40;;;18.10;72.70;;;;;;4992878;28;20018;-74
2022/12/19 09:42:35;;;;;;;1.27;0.60;;;18.10;72.70;;;;;;4992833;28;20496;-74
2022/12/19 09:45:15;;;;;;;1.13;0.52;;;18.10;72.70;;;;;;4975461;28;20023;-74
2022/12/19 09:47:42;;;;;;;1.38;0.50;;;18.10;72.70;;;;;;4975610;28;20109;-74
2022/12/19 09:50:23;;;;;;;0.93;0.60;;;18.10;72.70;;;;;;4975312;28;20023;-74
2022/12/19 09:52:51;;;;;;;1.67;0.60;;;18.10;72.60;;;;;;4976382;28;20034;-74
2022/12/19 09:55:46;;;;;;;1.65;0.75;;;18.10;72.60;;;;;;4976573;28;20065;-74
2022/12/19 09:58:31;;;;;;;1.13;0.43;;;18.10;72.60;;;;;;4987762;28;20042;-74
2022/12/19 10:00:58;;;;;;;1.73;0.60;;;18.10;72.70;;;;;;4981764;28;20034;-74
2022/12/19 10:03:53;;;;;;;1.23;0.50;;;18.10;72.70;;;;;;4978908;28;20034;-74
2022/12/19 10:06:21;;;;;;;1.55;0.60;;;18.10;72.60;;;;;;4977259;28;20547;-74
2022/12/19 10:08:46;;;;;;;2.33;0.50;;;18.10;72.60;;;;;;4978919;28;20136;-74
2022/12/19 10:11:15;;;;;;;0.73;0.40;;;18.10;72.70;;;;;;4979139;28;20110;-74
2022/12/19 10:14:06;;;;;;;1.27;0.52;;;18.10;72.60;;;;;;4996347;28;20392;-74
2022/12/19 10:16:50;;;;;;;0.55;0.55;;;18.10;72.50;;;;;;4996198;28;20457;-74
2022/12/19 10:19:39;;;;;;;0.70;0.43;;;18.10;72.60;;;;;;4996115;28;20038;-74
2022/12/19 10:22:24;;;;;;;1.83;0.60;;;18.10;72.60;;;;;;4935850;29;20434;-74
2022/12/19 10:25:05;;;;;;;1.52;0.50;;;18.10;72.70;;;;;;4921387;29;20429;-74
2022/12/19 10:27:42;;;;;;;1.60;0.70;;;18.10;72.70;;;;;;4936075;29;20175;-74
2022/12/19 10:30:19;;;;;;;1.13;0.50;;;18.10;72.70;;;;;;4905152;29;20094;-74
2022/12/19 10:33:15;;;;;;;2.47;0.47;;;18.10;72.70;;;;;;4904765;29;20047;-74
2022/12/19 10:35:42;;;;;;;0.93;0.50;;;18.10;72.70;;;;;;4935989;29;20035;-74
2022/12/19 10:38:27;;;;;;;1.80;0.57;;;18.10;72.70;;;;;;4920125;29;20055;-74
2022/12/19 10:41:09;;;;;;;2.78;0.60;;;18.10;72.80;;;;;;4919981;29;20406;-74
2022/12/19 10:43:38;;;;;;;3.55;0.30;;;18.10;72.70;;;;;;4921750;29;20507;-74
2022/12/19 10:46:31;;;;;;;0.40;0.40;;;18.10;72.70;;;;;;4935468;29;20426;-74
2022/12/19 10:48:57;;;;;;;3.95;0.63;;;18.10;72.70;;;;;;4922563;29;20028;-74
2022/12/19 10:51:25;;;;;;;1.40;0.52;;;18.10;72.70;;;;;;4919731;29;20032;-74
2022/12/19 10:53:58;;;;;;;1.98;0.45;;;18.10;72.70;;;;;;4916628;29;20039;-73
2022/12/19 10:56:26;;;;;;;1.75;0.57;;;18.10;72.70;;;;;;4916605;29;20028;-73
2022/12/19 10:58:56;;;;;;;2.13;0.90;;;18.10;72.70;;;;;;4938017;28;20541;-73
2022/12/19 11:01:25;;;;;;;2.70;0.50;;;18.10;72.70;;;;;;4965652;28;20515;-73
2022/12/19 11:04:10;;;;;;;4.10;0.50;;;18.10;72.70;;;;;;4995561;28;20026;-74
2022/12/19 11:06:36;;;;;;;1.60;0.60;;;18.10;72.80;;;;;;4979673;28;20046;-73
2022/12/19 11:09:15;;;;;;;1.30;0.50;;;18.10;72.80;;;;;;4995355;28;20081;-73
2022/12/19 11:11:40;;;;;;;2.75;0.73;;;18.10;72.80;;;;;;4995143;28;20441;-74
2022/12/19 11:14:24;;;;;;;1.33;0.60;;;18.10;72.80;;;;;;4994951;28;20033;-74
2022/12/19 11:16:49;;;;;;;1.88;0.50;;;18.10;72.90;;;;;;4978048;28;20015;-74
2022/12/19 11:19:44;;;;;;;1.15;0.60;;;18.10;72.90;;;;;;4994961;28;20030;-74
2022/12/19 11:22:23;;;;;;;1.00;0.40;;;18.10;72.80;;;;;;4986347;28;20133;-74
2022/12/19 11:24:50;;;;;;;2.70;0.50;;;18.10;72.80;;;;;;4977687;28;20018;-74
2022/12/19 11:27:36;;;;;;;2.05;0.75;;;18.10;72.80;;;;;;4977748;28;20015;-74
2022/12/19 11:30:17;;;;;;;1.20;0.50;;;18.10;72.80;;;;;;4994700;28;20032;-74
2022/12/19 11:32:44;;;;;;;1.65;0.77;;;18.10;72.80;;;;;;4963322;28;20050;-74
2022/12/19 11:35:10;;;;;;;1.15;0.40;;;18.10;72.90;;;;;;4961519;28;20026;-74
2022/12/19 11:37:41;;;;;;;1.02;0.43;;;18.10;72.90;;;;;;4994743;28;20030;-74
2022/12/19 11:40:16;;;;;;;1.37;0.60;;;18.10;72.80;;;;;;4962005;28;20030;-74
2022/12/19 11:42:48;;;;;;;1.48;0.60;;;18.10;72.80;;;;;;4994270;28;20286;-74
2022/12/19 11:45:19;;;;;;;2.28;0.50;;;18.10;72.80;;;;;;4960668;28;20029;-74
2022/12/19 11:48:01;;;;;;;0.80;0.40;;;18.10;72.80;;;;;;4960995;28;20026;-74
2022/12/19 11:50:29;;;;;;;1.88;0.50;;;18.10;72.80;;;;;;4994014;28;20599;-74
2022/12/19 11:53:04;;;;;;;1.77;0.50;;;18.10;72.80;;;;;;4960496;28;20034;-74
2022/12/19 11:55:35;;;;;;;2.42;0.63;;;18.10;72.80;;;;;;4993795;28;20026;-74
2022/12/19 11:58:01;;;;;;;1.65;0.52;;;18.10;72.80;;;;;;4993726;28;20493;-74
2022/12/19 12:00:26;;;;;;;2.00;0.60;;;18.10;72.80;;;;;;4993611;28;20101;-73
2022/12/19 12:03:10;;;;;;;2.90;0.70;;;18.10;72.80;;;;;;4957331;28;20058;-73
2022/12/19 12:05:43;;;;;;;1.45;0.52;;;18.10;72.80;;;;;;4974259;28;20147;-73
2022/12/19 12:08:15;;;;;;;1.13;0.50;;;18.10;72.80;;;;;;4974055;28;20023;-73
2022/12/19 12:10:46;;;;;;;0.70;0.40;;;18.10;72.80;;;;;;4974089;28;20023;-73
2022/12/19 12:13:16;;;;;;;1.92;0.68;;;18.10;72.80;;;;;;4941355;28;20022;-74
2022/12/19 12:16:10;;;;;;;1.55;0.43;;;18.10;72.80;;;;;;4974019;28;20080;-74
2022/12/19 12:18:48;;;;;;;1.42;0.50;;;18.10;72.80;;;;;;4956539;28;20038;-74
2022/12/19 12:21:24;;;;;;;1.63;0.65;;;18.10;72.80;;;;;;4957132;28;20031;-74
2022/12/19 12:24:05;;;;;;;3.20;0.50;;;18.10;72.80;;;;;;4941288;28;20026;-73
2022/12/19 12:26:44;;;;;;;1.33;0.50;;;18.10;72.80;;;;;;4956702;28;20023;-73
2022/12/19 12:29:10;;;;;;;1.13;0.52;;;18.10;72.90;;;;;;4958072;28;20553;-74
2022/12/19 12:31:45;;;;;;;2.13;0.70;;;18.10;73.00;;;;;;4973510;28;20110;-73
2022/12/19 12:34:28;;;;;;;1.67;0.85;;;18.10;72.90;;;;;;4973791;28;20039;-74
2022/12/19 12:37:13;;;;;;;3.28;0.50;;;18.10;72.90;;;;;;4973682;28;20023;-74
2022/12/19 12:39:44;;;;;;;3.05;0.60;;;18.10;72.90;;;;;;4973510;28;20029;-74
2022/12/19 12:42:36;;;;;;;1.38;0.73;;;18.10;72.90;;;;;;4973355;28;20113;-74
2022/12/19 12:45:02;;;;;;;2.40;0.60;;;18.10;72.80;;;;;;4956427;28;20054;-74
2022/12/19 12:47:29;;;;;;;1.52;0.68;;;18.10;73.00;;;;;;4940109;28;20110;-74
2022/12/19 12:50:02;;;;;;;1.83;0.57;;;18.10;72.90;;;;;;4940593;28;20023;-74
2022/12/19 12:52:38;;;;;;;1.58;0.50;;;18.10;73.00;;;;;;4940478;28;20041;-74
2022/12/19 12:55:36;;;;;;;5.10;0.98;;;18.10;73.00;;;;;;4956355;28;20035;-74
2022/12/19 12:58:02;;;;;;;3.28;0.73;;;18.10;72.90;;;;;;4957343;28;20081;-74
2022/12/19 13:00:28;;;;;;;1.45;0.50;;;18.10;72.90;;;;;;4972263;28;20046;-74
2022/12/19 13:02:55;;;;;;;1.63;0.65;;;18.10;72.90;;;;;;4971718;28;20058;-74
2022/12/19 13:06:04;;;;;;;1.40;0.60;;;18.10;72.90;;;;;;4956046;28;20023;-74
2022/12/19 13:08:44;;;;;;;0.77;0.40;;;18.10;72.80;;;;;;4959485;28;20117;-74